Apostoles, Argentina
Current Conditions -  °F | °C
As of 7:00 AM on Friday 31 Oct 2014 (Local Time) from SARP Reporting Station
Clear Clear  
Wind Chill: 64°   Ceiling: Unl
Heat Index: 64°   Visibility: 6mi
Dew Point: 61°   Wind: 7mph
Humidity: 88%   Direction: 90°E
Pressure: 29.85"   Gusts: NA
Location:  27.92°S, 55.77°W
Report Text: SARP 311000Z 09006KT CAVOK 18/16 Q1011
Loading
Personal Weather Stations






























Interactive Weather Map
Tropical Storm Tracking
New forecast layout! Learn more

10-Day Weather Forecast

Advertisements
Track Severe Weather on mobile